Time;durP1;ratioP1;P1;durP2;ratioP2;P2;SDS_P1;SDS_P2;PMS_P1;PMS_P2;Temp;Humidity;BMP_temperature;BMP_pressure;BME280_temperature;BME280_humidity;BME280_pressure;Samples;Min_cycle;Max_cycle;Signal;HPM_P1;HPM_P2
2021/06/08 00:01:29;;;;;;;8.73;1.67;;;39.70;19.10;;;;;;4766505;30;20089;-61
2021/06/08 00:03:56;;;;;;;27.50;2.50;;;39.60;19.20;;;;;;4768622;30;20027;-60
2021/06/08 00:06:22;;;;;;;23.58;2.53;;;39.40;35.90;;;;;;4768707;30;20032;-60
2021/06/08 00:08:49;;;;;;;29.20;2.78;;;39.50;19.40;;;;;;4768835;30;20084;-61
2021/06/08 00:11:17;;;;;;;29.23;2.88;;;39.50;19.50;;;;;;4768497;30;20084;-62
2021/06/08 00:13:43;;;;;;;24.08;2.65;;;39.30;19.10;;;;;;4768444;30;20080;-63
2021/06/08 00:16:10;;;;;;;17.52;2.45;;;39.40;19.10;;;;;;4768283;30;20156;-61
2021/06/08 00:18:36;;;;;;;31.50;3.08;;;39.40;19.30;;;;;;4768368;30;20085;-62
2021/06/08 00:21:03;;;;;;;58.17;5.72;;;39.30;19.90;;;;;;4768887;30;20204;-62
2021/06/08 00:23:30;;;;;;;73.60;5.03;;;39.10;18.80;;;;;;4770999;30;20087;-62
2021/06/08 00:25:56;;;;;;;62.05;5.25;;;38.80;17.70;;;;;;4771406;30;20076;-63
2021/06/08 00:28:23;;;;;;;60.15;4.90;;;38.80;17.00;;;;;;4771227;30;20130;-63
2021/06/08 00:30:49;;;;;;;74.00;5.13;;;38.70;17.00;;;;;;4771387;30;20149;-62
2021/06/08 00:33:16;;;;;;;46.38;4.07;;;38.60;17.40;;;;;;4771615;30;20088;-62
2021/06/08 00:35:42;;;;;;;39.97;3.60;;;38.40;18.00;;;;;;4770889;30;20077;-61
2021/06/08 00:38:09;;;;;;;39.97;3.75;;;38.30;18.70;;;;;;4770182;30;20120;-61
2021/06/08 00:40:35;;;;;;;33.45;3.25;;;38.30;18.30;;;;;;4771333;30;20492;-62
2021/06/08 00:43:02;;;;;;;39.33;3.90;;;38.40;18.10;;;;;;4769607;30;20088;-61
2021/06/08 00:45:28;;;;;;;21.35;2.92;;;38.20;18.20;;;;;;4770736;30;20159;-61
2021/06/08 00:47:54;;;;;;;31.92;2.60;;;38.30;17.90;;;;;;4771549;30;20504;-61
2021/06/08 00:50:21;;;;;;;18.95;2.70;;;38.20;16.80;;;;;;4771637;30;20087;-60
2021/06/08 00:52:51;;;;;;;27.58;2.67;;;38.30;16.80;;;;;;4771491;30;20122;-61
2021/06/08 00:55:19;;;;;;;27.92;2.50;;;38.30;16.10;;;;;;4772087;30;20083;-61
2021/06/08 00:57:46;;;;;;;32.30;3.00;;;38.10;16.10;;;;;;4771456;30;20149;-60
2021/06/08 01:00:13;;;;;;;28.05;2.38;;;38.10;16.50;;;;;;4771238;30;20077;-65
2021/06/08 01:02:40;;;;;;;27.42;2.30;;;37.90;16.30;;;;;;4771398;30;20069;-65
2021/06/08 01:05:08;;;;;;;25.92;4.88;;;37.80;16.60;;;;;;4771503;30;20128;-66
2021/06/08 01:07:36;;;;;;;22.55;2.58;;;37.60;16.80;;;;;;4771388;30;20447;-65
2021/06/08 01:10:06;;;;;;;25.92;2.25;;;37.40;16.60;;;;;;4771713;30;20212;-64
2021/06/08 01:12:33;;;;;;;19.25;2.28;;;37.40;16.20;;;;;;4770216;30;20082;-65
2021/06/08 01:14:59;;;;;;;13.35;1.90;;;37.30;16.10;;;;;;4770328;30;20096;-65
2021/06/08 01:17:26;;;;;;;12.98;2.47;;;37.20;16.40;;;;;;4770453;30;20135;-65
2021/06/08 01:19:57;;;;;;;16.75;2.08;;;37.10;16.80;;;;;;4770625;30;20083;-66
2021/06/08 01:22:24;;;;;;;13.68;1.90;;;36.90;16.80;;;;;;4772020;30;20559;-66
2021/06/08 01:24:52;;;;;;;12.32;1.85;;;36.80;17.80;;;;;;4771113;30;20079;-66
2021/06/08 01:27:20;;;;;;;20.60;2.40;;;36.80;18.70;;;;;;4769380;30;20168;-65
2021/06/08 01:29:49;;;;;;;19.65;1.92;;;36.80;18.00;;;;;;4771105;30;20113;-65
2021/06/08 01:32:22;;;;;;;17.40;2.20;;;36.80;18.10;;;;;;4770851;30;20555;-66
2021/06/08 01:34:50;;;;;;;12.45;1.67;;;36.70;18.50;;;;;;4769614;30;20563;-66
2021/06/08 01:37:17;;;;;;;14.82;1.83;;;36.70;17.10;;;;;;4770691;30;20127;-66
2021/06/08 01:39:46;;;;;;;17.95;2.10;;;36.60;17.30;;;;;;4769128;30;20226;-65
2021/06/08 01:42:14;;;;;;;14.38;2.20;;;36.50;17.30;;;;;;4770656;30;20080;-66
2021/06/08 01:44:44;;;;;;;12.80;1.70;;;36.40;17.00;;;;;;4770943;30;20077;-66
2021/06/08 01:47:13;;;;;;;9.52;1.40;;;36.30;17.00;;;;;;4770693;30;20085;-65
2021/06/08 01:49:40;;;;;;;10.15;1.67;;;36.20;16.80;;;;;;4770646;30;20163;-65
2021/06/08 01:52:59;;;;;;;11.10;1.30;;;36.10;16.60;;;;;;4770944;30;20084;-66
2021/06/08 01:55:31;;;;;;;10.18;1.55;;;36.00;16.70;;;;;;4725650;30;20092;-66
2021/06/08 01:58:18;;;;;;;13.60;2.08;;;35.80;17.10;;;;;;4760907;30;20151;-66
2021/06/08 02:01:09;;;;;;;16.38;1.52;;;35.70;16.90;;;;;;4770340;30;20073;-66
2021/06/08 02:03:48;;;;;;;10.70;1.20;;;35.60;16.80;;;;;;4770530;30;20527;-68
2021/06/08 02:06:38;;;;;;;11.27;1.70;;;35.50;17.20;;;;;;4769587;30;20088;-66
2021/06/08 02:09:23;;;;;;;17.65;1.75;;;35.40;16.60;;;;;;4770617;30;20088;-65
2021/06/08 02:12:07;;;;;;;4.90;1.55;;;35.30;14.80;;;;;;4769896;30;20113;-65
2021/06/08 02:14:42;;;;;;;22.20;1.70;;;35.10;14.80;;;;;;4770065;30;20084;-68
2021/06/08 02:17:22;;;;;;;27.02;2.22;;;35.00;14.30;;;;;;4768373;30;20127;-66
2021/06/08 02:19:51;;;;;;;23.30;1.73;;;34.90;15.30;;;;;;4769971;30;20545;-67
2021/06/08 02:22:23;;;;;;;18.08;1.58;;;34.80;15.00;;;;;;4770547;30;20081;-68
2021/06/08 02:24:51;;;;;;;15.10;1.88;;;34.70;15.80;;;;;;4769381;30;20075;-67
2021/06/08 02:27:21;;;;;;;21.02;2.10;;;34.60;15.10;;;;;;4767663;30;20085;-68
2021/06/08 02:29:51;;;;;;;22.20;2.03;;;34.60;14.90;;;;;;4769409;30;20095;-67
2021/06/08 02:32:20;;;;;;;17.98;1.98;;;34.50;15.00;;;;;;4769841;30;20084;-67
2021/06/08 02:34:47;;;;;;;13.68;1.45;;;34.40;15.60;;;;;;4769939;30;20132;-65
2021/06/08 02:37:17;;;;;;;10.43;1.33;;;34.30;14.90;;;;;;4769928;30;20197;-66
2021/06/08 02:39:45;;;;;;;14.98;1.23;;;34.20;15.10;;;;;;4770315;30;20118;-66
2021/06/08 02:42:13;;;;;;;9.93;1.17;;;34.10;15.30;;;;;;4770446;30;20142;-67
2021/06/08 02:44:41;;;;;;;7.63;1.50;;;33.90;15.70;;;;;;4769993;30;20404;-67
2021/06/08 02:47:08;;;;;;;11.45;1.83;;;33.70;17.80;;;;;;4770262;30;20448;-67
2021/06/08 02:49:35;;;;;;;13.30;1.80;;;33.50;18.70;;;;;;4770254;30;20082;-68
2021/06/08 02:52:02;;;;;;;11.60;1.50;;;33.30;19.00;;;;;;4769555;30;20084;-68
2021/06/08 02:54:29;;;;;;;15.55;1.83;;;33.10;19.60;;;;;;4769541;30;20645;-68
2021/06/08 02:56:58;;;;;;;11.13;1.92;;;33.00;20.30;;;;;;4769366;30;20108;-65
2021/06/08 02:59:27;;;;;;;22.75;2.20;;;32.70;20.80;;;;;;4769516;30;20561;-66
2021/06/08 03:01:57;;;;;;;17.35;2.45;;;32.60;21.50;;;;;;4770071;30;20175;-67
2021/06/08 03:04:28;;;;;;;12.23;2.15;;;32.30;21.60;;;;;;4769413;30;20438;-66
2021/06/08 03:07:00;;;;;;;16.45;2.08;;;32.10;21.50;;;;;;4771348;30;20091;-65
2021/06/08 03:09:37;;;;;;;18.15;1.83;;;32.00;21.70;;;;;;4768779;30;20125;-65
2021/06/08 03:12:08;;;;;;;20.80;2.10;;;31.90;21.20;;;;;;4768561;30;20076;-64
2021/06/08 03:14:36;;;;;;;25.25;4.63;;;31.80;21.30;;;;;;4768744;30;20080;-65
2021/06/08 03:17:04;;;;;;;23.85;2.90;;;31.60;21.50;;;;;;4767143;30;20104;-65
2021/06/08 03:19:34;;;;;;;25.83;2.47;;;31.60;21.60;;;;;;4768321;30;20077;-64
2021/06/08 03:22:06;;;;;;;20.27;2.10;;;31.60;21.90;;;;;;4769354;30;20076;-65
2021/06/08 03:24:36;;;;;;;16.08;2.40;;;31.50;21.90;;;;;;4769271;30;20087;-64
2021/06/08 03:27:04;;;;;;;32.45;5.78;;;31.50;22.30;;;;;;4766978;30;20446;-65
2021/06/08 03:29:33;;;;;;;21.92;3.38;;;31.30;22.60;;;;;;4769092;30;20076;-66
2021/06/08 03:32:01;;;;;;;60.75;4.03;;;31.20;23.00;;;;;;4769380;30;20075;-66
2021/06/08 03:34:28;;;;;;;35.85;3.00;;;31.10;23.20;;;;;;4769278;30;20126;-64
2021/06/08 03:36:56;;;;;;;23.40;2.40;;;30.90;23.60;;;;;;4769473;30;20180;-66
2021/06/08 03:39:24;;;;;;;23.45;2.40;;;30.80;23.60;;;;;;4769278;30;20454;-67
2021/06/08 03:41:52;;;;;;;28.63;2.67;;;30.70;23.80;;;;;;4768460;30;20084;-67
2021/06/08 03:44:20;;;;;;;19.05;2.72;;;30.60;23.70;;;;;;4769410;30;20151;-66
2021/06/08 03:46:51;;;;;;;25.17;2.53;;;30.50;23.80;;;;;;4769199;30;20187;-65
2021/06/08 03:49:20;;;;;;;29.15;3.25;;;30.50;23.90;;;;;;4768495;30;20527;-65
2021/06/08 03:51:49;;;;;;;21.38;2.83;;;30.30;23.70;;;;;;4769171;30;20080;-66
2021/06/08 03:54:16;;;;;;;39.83;3.45;;;30.30;23.70;;;;;;4769297;30;20155;-65
2021/06/08 03:56:45;;;;;;;32.70;3.53;;;30.10;23.60;;;;;;4770434;30;20166;-63
2021/06/08 03:59:13;;;;;;;25.90;2.80;;;30.00;23.90;;;;;;4772526;30;20091;-64
2021/06/08 04:01:41;;;;;;;34.10;3.40;;;29.90;23.90;;;;;;4772950;30;20539;-65
2021/06/08 04:04:08;;;;;;;27.02;3.20;;;29.90;24.20;;;;;;4771848;30;20076;-67
2021/06/08 04:06:36;;;;;;;23.92;3.03;;;29.90;24.10;;;;;;4770392;30;20076;-67
2021/06/08 04:09:09;;;;;;;18.67;2.75;;;30.00;23.90;;;;;;4771578;30;20099;-67
2021/06/08 04:11:37;;;;;;;28.58;3.08;;;30.00;24.00;;;;;;4771566;30;20083;-66
2021/06/08 04:14:04;;;;;;;28.55;2.97;;;30.10;24.40;;;;;;4772797;30;20088;-67
2021/06/08 04:16:33;;;;;;;18.30;2.65;;;30.00;23.70;;;;;;4772585;30;20098;-67
2021/06/08 04:19:01;;;;;;;30.98;3.47;;;29.90;23.50;;;;;;4769535;30;20084;-65
2021/06/08 04:21:28;;;;;;;29.45;3.05;;;29.70;23.20;;;;;;4772532;30;20081;-66
2021/06/08 04:24:04;;;;;;;28.10;3.15;;;29.60;23.00;;;;;;4772629;30;20084;-66
2021/06/08 04:26:31;;;;;;;32.60;3.30;;;29.50;22.90;;;;;;4772038;30;20088;-67
2021/06/08 04:28:58;;;;;;;26.73;2.70;;;29.40;22.80;;;;;;4771957;30;20077;-66
2021/06/08 04:31:26;;;;;;;29.25;2.92;;;29.30;22.60;;;;;;4772194;30;20073;-67
2021/06/08 04:33:53;;;;;;;20.90;3.15;;;29.30;22.50;;;;;;4772314;30;20535;-67
2021/06/08 04:36:21;;;;;;;20.55;2.25;;;29.20;22.60;;;;;;4772016;30;20099;-67
2021/06/08 04:38:47;;;;;;;21.90;3.72;;;29.20;22.40;;;;;;4756292;30;20092;-65
2021/06/08 04:41:15;;;;;;;22.30;2.53;;;29.20;22.10;;;;;;4771032;30;20226;-67
2021/06/08 04:43:42;;;;;;;21.00;2.17;;;29.00;22.20;;;;;;4773767;30;20095;-66
2021/06/08 04:46:12;;;;;;;23.40;2.65;;;29.10;22.50;;;;;;4771061;30;20080;-67
2021/06/08 04:48:43;;;;;;;30.20;2.60;;;29.10;22.60;;;;;;4771162;30;20091;-66
2021/06/08 04:51:11;;;;;;;20.15;3.03;;;29.00;22.70;;;;;;4772217;30;20099;-66
2021/06/08 04:53:38;;;;;;;9.82;2.33;;;29.00;22.90;;;;;;4771129;30;20149;-67
2021/06/08 04:56:08;;;;;;;13.60;2.30;;;28.90;22.90;;;;;;4772387;30;20088;-66
2021/06/08 04:58:36;;;;;;;22.65;2.45;;;28.70;23.30;;;;;;4772249;30;20571;-66
2021/06/08 05:01:28;;;;;;;9.30;2.10;;;28.60;24.00;;;;;;4771711;30;20087;-67
2021/06/08 05:04:11;;;;;;;14.57;2.05;;;28.60;24.20;;;;;;4771979;30;20142;-67
2021/06/08 05:06:45;;;;;;;19.25;2.35;;;28.60;24.20;;;;;;4771503;30;20125;-66
2021/06/08 05:09:22;;;;;;;16.17;2.63;;;28.50;24.50;;;;;;4769994;30;20088;-67
2021/06/08 05:11:53;;;;;;;14.77;2.40;;;28.30;25.20;;;;;;4771625;30;20072;-67
2021/06/08 05:14:21;;;;;;;19.33;2.72;;;28.10;25.60;;;;;;4771721;30;20450;-67
2021/06/08 05:16:50;;;;;;;16.27;2.70;;;28.10;25.80;;;;;;4771958;30;20111;-67
2021/06/08 05:19:18;;;;;;;16.58;2.63;;;28.00;26.00;;;;;;4771306;30;20069;-66
2021/06/08 05:21:46;;;;;;;20.73;2.60;;;27.90;26.00;;;;;;4771430;30;20080;-67
2021/06/08 05:24:20;;;;;;;13.52;2.50;;;27.80;26.00;;;;;;4771318;30;20103;-67
2021/06/08 05:26:49;;;;;;;20.67;2.90;;;27.70;25.80;;;;;;4771039;30;20103;-67
2021/06/08 05:29:20;;;;;;;14.98;3.50;;;27.70;25.70;;;;;;4771321;30;20073;-68
2021/06/08 05:31:47;;;;;;;15.30;3.20;;;27.70;25.80;;;;;;4771152;30;20163;-67
2021/06/08 05:34:15;;;;;;;13.85;2.70;;;27.70;25.90;;;;;;4771246;30;20076;-67
2021/06/08 05:36:42;;;;;;;14.10;2.25;;;27.70;25.90;;;;;;4771084;30;20145;-69
2021/06/08 05:39:10;;;;;;;30.48;3.53;;;27.60;26.00;;;;;;4770146;30;20096;-66
2021/06/08 05:41:38;;;;;;;18.67;2.63;;;27.60;26.10;;;;;;4771230;30;20167;-66
2021/06/08 05:44:05;;;;;;;12.73;2.63;;;27.60;26.00;;;;;;4770960;30;20076;-66
2021/06/08 05:46:35;;;;;;;16.58;2.40;;;27.60;26.00;;;;;;4771336;30;20080;-66
2021/06/08 05:49:02;;;;;;;8.90;2.33;;;27.50;25.60;;;;;;4769796;30;20129;-66
2021/06/08 05:51:33;;;;;;;16.52;2.33;;;27.50;26.20;;;;;;4770837;30;20607;-66
2021/06/08 05:54:01;;;;;;;9.75;1.90;;;27.40;25.40;;;;;;4770989;30;20099;-67
2021/06/08 05:56:33;;;;;;;11.80;2.15;;;27.40;25.30;;;;;;4770851;30;20080;-66
2021/06/08 05:59:00;;;;;;;12.55;1.92;;;27.30;25.20;;;;;;4770635;30;20432;-65
2021/06/08 06:01:27;;;;;;;12.77;2.38;;;27.30;25.30;;;;;;4770603;30;20504;-66
2021/06/08 06:03:54;;;;;;;8.07;2.38;;;27.30;26.10;;;;;;4769524;30;20103;-66
2021/06/08 06:06:22;;;;;;;9.15;2.80;;;27.20;25.70;;;;;;4769837;30;20084;-66
2021/06/08 06:08:48;;;;;;;13.50;2.47;;;27.10;25.50;;;;;;4769156;30;20502;-65
2021/06/08 06:11:18;;;;;;;9.20;2.40;;;27.10;25.70;;;;;;4770507;30;20171;-66
2021/06/08 06:13:53;;;;;;;24.50;2.95;;;27.00;25.90;;;;;;4770363;30;20084;-65
2021/06/08 06:16:21;;;;;;;14.57;2.95;;;26.90;26.30;;;;;;4770601;30;20087;-66
2021/06/08 06:18:48;;;;;;;19.90;2.80;;;26.70;26.70;;;;;;4768972;30;20084;-66
2021/06/08 06:21:17;;;;;;;24.27;2.80;;;26.60;26.90;;;;;;4770469;30;20087;-66
2021/06/08 06:23:44;;;;;;;17.10;2.60;;;26.60;26.90;;;;;;4770298;30;20084;-66
2021/06/08 06:26:11;;;;;;;24.70;2.60;;;26.50;26.90;;;;;;4770170;30;20171;-66
2021/06/08 06:28:41;;;;;;;20.10;3.03;;;26.50;26.90;;;;;;4770050;30;20581;-66
2021/06/08 06:31:09;;;;;;;13.40;2.22;;;26.50;26.80;;;;;;4770123;30;20428;-66
2021/06/08 06:33:36;;;;;;;17.60;2.30;;;26.40;26.70;;;;;;4769991;30;20186;-66
2021/06/08 06:36:06;;;;;;;18.55;2.30;;;26.40;26.80;;;;;;4770178;30;20076;-66
2021/06/08 06:38:34;;;;;;;26.27;2.92;;;26.40;26.80;;;;;;4768961;30;20166;-67
2021/06/08 06:41:08;;;;;;;19.58;3.17;;;26.50;27.10;;;;;;4769902;30;20077;-67
2021/06/08 06:43:38;;;;;;;23.42;3.10;;;26.50;27.20;;;;;;4769885;30;20146;-66
2021/06/08 06:46:04;;;;;;;30.20;3.08;;;26.50;27.30;;;;;;4770335;30;20084;-66
2021/06/08 06:48:31;;;;;;;24.48;3.70;;;26.50;27.70;;;;;;4768541;30;20073;-65
2021/06/08 06:50:58;;;;;;;34.10;4.10;;;26.40;28.10;;;;;;4768774;30;20539;-66
2021/06/08 06:53:24;;;;;;;40.30;4.30;;;26.30;28.90;;;;;;4768763;30;20641;-65
2021/06/08 06:55:52;;;;;;;21.58;2.83;;;26.10;29.70;;;;;;4768137;30;20141;-66
2021/06/08 06:58:20;;;;;;;23.35;4.07;;;26.00;30.30;;;;;;4768925;30;20092;-66
2021/06/08 07:00:48;;;;;;;28.20;3.47;;;25.70;30.80;;;;;;4767957;30;20099;-65
2021/06/08 07:03:17;;;;;;;27.85;3.60;;;25.60;31.00;;;;;;4768930;30;20080;-64
2021/06/08 07:05:48;;;;;;;28.08;3.78;;;25.50;31.30;;;;;;4767711;30;20082;-66
2021/06/08 07:08:20;;;;;;;24.08;2.83;;;25.50;31.50;;;;;;4768920;30;20088;-65
2021/06/08 07:10:47;;;;;;;20.02;3.08;;;25.40;31.30;;;;;;4768694;30;20080;-66
2021/06/08 07:13:14;;;;;;;16.63;2.70;;;25.40;31.00;;;;;;4768819;30;20080;-66
2021/06/08 07:15:44;;;;;;;21.02;3.10;;;25.30;30.60;;;;;;4768996;30;20076;-65
2021/06/08 07:18:11;;;;;;;15.63;2.50;;;25.20;30.20;;;;;;4768857;30;20107;-66
2021/06/08 07:20:38;;;;;;;9.82;2.40;;;25.10;29.90;;;;;;4766833;30;20080;-65
2021/06/08 07:23:08;;;;;;;13.10;2.58;;;24.90;29.90;;;;;;4768566;30;20581;-65
2021/06/08 07:25:38;;;;;;;12.00;2.05;;;25.00;29.40;;;;;;4768920;30;20574;-65
2021/06/08 07:28:07;;;;;;;17.52;2.38;;;24.90;28.70;;;;;;4769209;30;20084;-67
2021/06/08 07:30:35;;;;;;;10.52;2.20;;;25.00;28.50;;;;;;4768541;30;20642;-66
2021/06/08 07:33:49;;;;;;;8.30;1.75;;;25.00;28.30;;;;;;4768675;30;20431;-66
2021/06/08 07:36:26;;;;;;;14.02;2.40;;;25.00;27.90;;;;;;4755561;30;20092;-67
2021/06/08 07:38:59;;;;;;;10.52;1.60;;;25.10;27.50;;;;;;4769006;30;20549;-66
2021/06/08 07:41:54;;;;;;;6.95;1.63;;;25.00;27.90;;;;;;4768351;30;20088;-66
2021/06/08 07:44:46;;;;;;;6.97;1.58;;;25.10;27.20;;;;;;4768812;30;20168;-66
2021/06/08 07:47:16;;;;;;;7.55;1.63;;;25.10;27.30;;;;;;4768243;30;20092;-67
2021/06/08 07:49:44;;;;;;;12.20;1.77;;;25.10;26.90;;;;;;4766410;30;20076;-65
2021/06/08 07:52:13;;;;;;;6.93;2.35;;;25.10;27.10;;;;;;4767833;30;20163;-66
2021/06/08 07:54:41;;;;;;;11.82;2.05;;;25.10;26.90;;;;;;4768566;30;20076;-65
2021/06/08 07:57:09;;;;;;;10.77;2.60;;;25.10;26.90;;;;;;4768313;30;20195;-66
2021/06/08 07:59:35;;;;;;;6.88;1.63;;;24.90;26.90;;;;;;4768358;30;20081;-65
2021/06/08 08:02:02;;;;;;;11.82;1.85;;;24.90;27.00;;;;;;4768566;30;20531;-65
2021/06/08 08:04:37;;;;;;;6.85;1.98;;;24.90;27.10;;;;;;4768163;30;20175;-65
2021/06/08 08:07:04;;;;;;;8.50;1.77;;;24.70;27.30;;;;;;4767646;30;20076;-66
2021/06/08 08:09:31;;;;;;;14.38;2.10;;;24.60;27.80;;;;;;4766230;30;20085;-66
2021/06/08 08:11:59;;;;;;;20.80;2.47;;;24.40;28.10;;;;;;4768423;30;20535;-66
2021/06/08 08:14:26;;;;;;;14.75;2.15;;;24.50;28.50;;;;;;4768143;30;20085;-66
2021/06/08 08:16:57;;;;;;;11.38;2.30;;;24.40;28.80;;;;;;4768506;30;20104;-65
2021/06/08 08:19:24;;;;;;;12.98;2.45;;;24.40;29.00;;;;;;4766410;30;20072;-66
2021/06/08 08:21:51;;;;;;;7.57;2.17;;;24.20;29.20;;;;;;4767825;30;20077;-66
2021/06/08 08:24:18;;;;;;;11.07;2.28;;;24.30;29.30;;;;;;4768495;30;20554;-66
2021/06/08 08:26:45;;;;;;;7.57;1.98;;;24.10;29.50;;;;;;4768567;30;20469;-67
2021/06/08 08:29:12;;;;;;;14.77;2.35;;;24.00;29.80;;;;;;4781175;30;20331;-67
2021/06/08 08:31:38;;;;;;;10.20;2.20;;;24.00;30.00;;;;;;4767216;30;20171;-66
2021/06/08 08:34:06;;;;;;;12.18;2.15;;;24.00;30.20;;;;;;4768559;30;20084;-66
2021/06/08 08:36:37;;;;;;;6.95;1.95;;;24.10;30.10;;;;;;4766751;30;20200;-66
2021/06/08 08:39:08;;;;;;;12.60;2.30;;;24.10;30.20;;;;;;4767497;30;20079;-66
2021/06/08 08:41:35;;;;;;;12.25;2.55;;;24.20;29.50;;;;;;4767814;30;20141;-66
2021/06/08 08:44:03;;;;;;;13.55;2.63;;;24.10;29.60;;;;;;4771299;30;20080;-64
2021/06/08 08:46:29;;;;;;;9.02;1.95;;;24.00;29.90;;;;;;4771446;30;20115;-66
2021/06/08 08:48:57;;;;;;;15.40;2.60;;;24.00;30.20;;;;;;4771480;30;20149;-66
2021/06/08 08:51:26;;;;;;;5.63;2.03;;;23.80;30.50;;;;;;4771373;30;20076;-67
2021/06/08 08:53:55;;;;;;;11.52;2.35;;;23.80;30.90;;;;;;4770059;30;20671;-66
2021/06/08 08:56:25;;;;;;;11.15;2.40;;;23.90;31.00;;;;;;4771164;30;20104;-66
2021/06/08 08:58:52;;;;;;;6.13;2.05;;;23.90;31.10;;;;;;4770742;30;20109;-65
2021/06/08 09:01:19;;;;;;;13.65;2.80;;;23.80;31.30;;;;;;4770906;30;20100;-65
2021/06/08 09:03:46;;;;;;;14.57;2.20;;;23.70;31.70;;;;;;4771153;30;20094;-66
2021/06/08 09:06:13;;;;;;;10.70;2.35;;;23.60;32.00;;;;;;4771125;30;20072;-66
2021/06/08 09:08:43;;;;;;;12.15;2.22;;;23.40;32.50;;;;;;4771368;30;20100;-68
2021/06/08 09:11:11;;;;;;;7.60;2.30;;;23.50;32.60;;;;;;4769448;30;20094;-65
2021/06/08 09:13:39;;;;;;;8.10;2.35;;;23.50;32.70;;;;;;4769676;30;20084;-66
2021/06/08 09:16:09;;;;;;;20.42;2.20;;;23.50;32.90;;;;;;4770307;30;20103;-67
2021/06/08 09:18:36;;;;;;;11.10;2.10;;;23.50;33.10;;;;;;4770778;30;20100;-67
2021/06/08 09:21:18;;;;;;;8.23;2.67;;;23.40;33.40;;;;;;4770367;30;20091;-67
2021/06/08 09:23:45;;;;;;;7.30;2.22;;;23.30;33.70;;;;;;4770614;30;20080;-66
2021/06/08 09:26:14;;;;;;;10.60;2.33;;;23.20;34.30;;;;;;4770929;30;20081;-67
2021/06/08 09:28:41;;;;;;;7.70;2.13;;;23.10;34.50;;;;;;4769820;30;20165;-67
2021/06/08 09:31:23;;;;;;;11.25;2.00;;;23.00;34.80;;;;;;4770723;30;20548;-66
2021/06/08 09:33:57;;;;;;;7.82;2.22;;;22.90;35.10;;;;;;4773381;30;20163;-66
2021/06/08 09:36:24;;;;;;;11.30;1.98;;;22.90;35.30;;;;;;4771999;30;20434;-67
2021/06/08 09:38:53;;;;;;;14.23;2.90;;;22.90;35.30;;;;;;4773940;30;20080;-66
2021/06/08 09:41:24;;;;;;;9.18;2.80;;;22.80;35.30;;;;;;4773191;30;20141;-66
2021/06/08 09:44:03;;;;;;;10.18;2.40;;;22.80;35.20;;;;;;4771509;30;20446;-67
2021/06/08 09:46:46;;;;;;;12.13;2.70;;;22.80;35.10;;;;;;4773997;30;20068;-66
2021/06/08 09:49:18;;;;;;;11.48;2.28;;;22.80;35.10;;;;;;4770574;30;20454;-66
2021/06/08 09:52:06;;;;;;;9.43;2.60;;;22.70;35.00;;;;;;4770083;30;20095;-66
2021/06/08 09:54:36;;;;;;;11.77;2.55;;;22.70;35.10;;;;;;4768699;30;20072;-66
2021/06/08 09:57:26;;;;;;;6.15;1.65;;;22.70;34.90;;;;;;4770284;30;20626;-66
2021/06/08 09:59:57;;;;;;;12.07;2.53;;;22.60;35.00;;;;;;4769748;30;20076;-66
2021/06/08 10:02:25;;;;;;;14.27;2.38;;;22.50;35.10;;;;;;4770323;30;20160;-66
2021/06/08 10:04:52;;;;;;;8.80;2.20;;;22.60;35.20;;;;;;4768884;30;20446;-67
2021/06/08 10:07:32;;;;;;;7.47;1.80;;;22.60;35.00;;;;;;4770074;30;20539;-66
2021/06/08 10:10:07;;;;;;;16.33;2.40;;;22.60;34.70;;;;;;4769081;30;20086;-66
2021/06/08 10:12:56;;;;;;;7.53;1.98;;;22.50;34.60;;;;;;4770080;30;20080;-66
2021/06/08 10:15:23;;;;;;;7.57;2.42;;;22.60;34.50;;;;;;4769092;30;20080;-66
2021/06/08 10:17:57;;;;;;;8.10;1.98;;;22.50;34.50;;;;;;4770071;30;20154;-66
2021/06/08 10:20:27;;;;;;;11.77;2.65;;;22.50;34.50;;;;;;4769218;30;20084;-67
2021/06/08 10:22:53;;;;;;;11.02;2.38;;;22.50;34.40;;;;;;4767637;30;20091;-66
2021/06/08 10:25:20;;;;;;;6.05;1.98;;;22.50;33.90;;;;;;4769839;30;20087;-66
2021/06/08 10:27:48;;;;;;;9.68;1.98;;;22.40;33.20;;;;;;4769559;30;20112;-66
2021/06/08 10:30:15;;;;;;;9.52;2.00;;;22.40;32.90;;;;;;4769468;30;20396;-65
2021/06/08 10:32:41;;;;;;;9.90;2.17;;;22.40;32.40;;;;;;4769766;30;20126;-66
2021/06/08 10:35:11;;;;;;;10.68;2.22;;;22.40;32.10;;;;;;4768132;30;20076;-66
2021/06/08 10:37:38;;;;;;;6.03;2.25;;;22.40;32.10;;;;;;4769366;30;20142;-66
2021/06/08 10:40:06;;;;;;;12.93;2.13;;;22.30;32.10;;;;;;4769512;30;20084;-66
2021/06/08 10:42:33;;;;;;;6.95;2.17;;;22.30;31.90;;;;;;4768860;30;20115;-66
2021/06/08 10:45:10;;;;;;;12.65;2.78;;;22.30;31.90;;;;;;4769108;30;20084;-67
2021/06/08 10:47:44;;;;;;;7.05;2.15;;;22.30;32.20;;;;;;4768827;30;20084;-67
2021/06/08 10:50:28;;;;;;;7.63;1.83;;;22.30;32.50;;;;;;4769302;30;20136;-65
2021/06/08 10:52:58;;;;;;;9.63;2.40;;;22.40;32.60;;;;;;4766910;30;20543;-66
2021/06/08 10:55:34;;;;;;;12.23;2.45;;;22.40;31.40;;;;;;4768139;30;20086;-66
2021/06/08 10:58:01;;;;;;;9.40;2.35;;;22.40;30.90;;;;;;4769139;30;20108;-66
2021/06/08 11:00:41;;;;;;;9.25;2.42;;;22.30;31.20;;;;;;4769392;30;21181;-68
2021/06/08 11:03:10;;;;;;;7.03;2.08;;;22.30;30.90;;;;;;4781407;30;20301;-66
2021/06/08 11:05:46;;;;;;;15.55;2.33;;;22.30;31.30;;;;;;4768363;30;20076;-68
2021/06/08 11:08:13;;;;;;;9.15;1.88;;;22.30;31.40;;;;;;4768279;30;20087;-67
2021/06/08 11:10:44;;;;;;;12.52;2.35;;;22.30;31.60;;;;;;4769300;30;20551;-67
2021/06/08 11:13:12;;;;;;;8.80;2.03;;;22.30;31.40;;;;;;4768065;30;20080;-67
2021/06/08 11:15:40;;;;;;;15.32;2.40;;;22.20;31.20;;;;;;4769166;30;20431;-67
2021/06/08 11:18:23;;;;;;;10.65;2.20;;;22.10;31.30;;;;;;4769317;30;20108;-66
2021/06/08 11:21:05;;;;;;;12.68;2.47;;;22.10;31.20;;;;;;4768022;30;20504;-67
2021/06/08 11:23:42;;;;;;;10.73;2.15;;;22.10;31.60;;;;;;4769176;30;20080;-67
2021/06/08 11:26:10;;;;;;;7.88;2.05;;;22.10;32.20;;;;;;4768721;30;20848;-68
2021/06/08 11:28:50;;;;;;;8.52;2.33;;;22.00;32.00;;;;;;4768990;30;20080;-66
2021/06/08 11:31:18;;;;;;;17.75;2.67;;;21.90;32.10;;;;;;4768166;30;20106;-66
2021/06/08 11:33:50;;;;;;;16.92;2.80;;;22.00;32.60;;;;;;4768866;30;20469;-67
2021/06/08 11:36:19;;;;;;;10.63;2.25;;;21.90;32.00;;;;;;4768026;30;20076;-66
2021/06/08 11:38:47;;;;;;;17.05;2.45;;;21.80;31.90;;;;;;4768487;30;20107;-67
2021/06/08 11:41:14;;;;;;;8.93;2.30;;;21.90;32.60;;;;;;4768664;30;20422;-67
2021/06/08 11:43:45;;;;;;;11.90;2.60;;;21.80;32.00;;;;;;4768820;30;20081;-67
2021/06/08 11:46:17;;;;;;;9.70;2.40;;;21.70;32.30;;;;;;4768802;30;20527;-66
2021/06/08 11:48:48;;;;;;;17.67;2.90;;;21.60;33.40;;;;;;4767909;30;20106;-66
2021/06/08 11:51:15;;;;;;;16.40;3.50;;;21.50;33.30;;;;;;4767744;30;20078;-67
2021/06/08 11:54:11;;;;;;;18.48;3.45;;;21.40;33.60;;;;;;4768176;30;20091;-67
2021/06/08 11:57:00;;;;;;;13.98;2.97;;;21.30;33.80;;;;;;4768628;30;20479;-67
2021/06/08 11:59:55;;;;;;;13.93;3.58;;;21.40;34.40;;;;;;4767939;30;20434;-67
2021/06/08 12:02:31;;;;;;;19.95;3.13;;;21.50;34.30;;;;;;4768366;30;20163;-67
2021/06/08 12:05:23;;;;;;;12.63;2.95;;;21.50;34.00;;;;;;4768980;30;20487;-68
2021/06/08 12:08:05;;;;;;;17.80;3.22;;;21.40;33.90;;;;;;4768694;30;20095;-68
2021/06/08 12:10:42;;;;;;;18.85;3.08;;;21.50;34.40;;;;;;4768726;30;20076;-67
2021/06/08 12:13:09;;;;;;;20.17;3.00;;;21.50;34.40;;;;;;4769229;30;20171;-68
2021/06/08 12:15:41;;;;;;;15.43;3.63;;;21.50;34.10;;;;;;4768691;30;20073;-67
2021/06/08 12:18:26;;;;;;;26.52;4.00;;;21.40;34.30;;;;;;4770604;30;20111;-65
2021/06/08 12:20:53;;;;;;;21.83;3.53;;;21.40;35.00;;;;;;4771228;30;20072;-65
2021/06/08 12:23:34;;;;;;;25.58;3.13;;;21.40;34.80;;;;;;4772086;30;20163;-65
2021/06/08 12:26:14;;;;;;;26.30;3.20;;;21.40;35.00;;;;;;4771942;30;20084;-68
2021/06/08 12:28:44;;;;;;;18.48;3.40;;;21.40;34.00;;;;;;4770607;30;20079;-68
2021/06/08 12:31:18;;;;;;;15.15;3.53;;;21.30;34.20;;;;;;4771780;30;20137;-68
2021/06/08 12:33:48;;;;;;;23.55;2.95;;;21.30;34.30;;;;;;4772005;30;20085;-67
2021/06/08 12:36:15;;;;;;;26.00;3.50;;;21.30;34.40;;;;;;4769675;30;20100;-67
2021/06/08 12:38:49;;;;;;;18.77;3.53;;;21.40;34.80;;;;;;4770508;30;20124;-67
2021/06/08 12:41:17;;;;;;;28.30;4.82;;;21.30;34.60;;;;;;4771178;30;20155;-67
2021/06/08 12:43:49;;;;;;;24.17;4.07;;;21.30;35.00;;;;;;4770558;30;20072;-67
2021/06/08 12:46:36;;;;;;;30.02;4.22;;;21.40;35.20;;;;;;4771554;30;20083;-68
2021/06/08 12:49:09;;;;;;;34.00;4.13;;;21.30;35.00;;;;;;4770549;30;20090;-68
2021/06/08 12:51:37;;;;;;;32.80;3.60;;;21.40;35.10;;;;;;4769451;30;20083;-67
2021/06/08 12:54:06;;;;;;;28.67;4.60;;;21.40;35.50;;;;;;4771189;30;20159;-67
2021/06/08 12:56:34;;;;;;;21.98;3.35;;;21.30;35.00;;;;;;4771178;30;20454;-67